sensor_id;sensor_type;location;lat;lon;timestamp;P1;P2;P0
55549;PMS7003;41397;49.972;18.944;2024-03-08T00:01:39;36;32;19
55549;PMS7003;41397;49.972;18.944;2024-03-08T00:04:40;33;29;19
55549;PMS7003;41397;49.972;18.944;2024-03-08T00:07:42;34;30;19
55549;PMS7003;41397;49.972;18.944;2024-03-08T00:10:43;31;28;20
55549;PMS7003;41397;49.972;18.944;2024-03-08T00:13:44;39;34;20
55549;PMS7003;41397;49.972;18.944;2024-03-08T00:16:47;31;28;17
55549;PMS7003;41397;49.972;18.944;2024-03-08T00:19:50;38;31;19
55549;PMS7003;41397;49.972;18.944;2024-03-08T00:22:52;29;27;16
55549;PMS7003;41397;49.972;18.944;2024-03-08T00:25:53;34;29;19
55549;PMS7003;41397;49.972;18.944;2024-03-08T00:28:56;34;30;17
55549;PMS7003;41397;49.972;18.944;2024-03-08T00:31:58;24;22;16
55549;PMS7003;41397;49.972;18.944;2024-03-08T00:34:59;31;27;15
55549;PMS7003;41397;49.972;18.944;2024-03-08T00:38:00;25;24;16
55549;PMS7003;41397;49.972;18.944;2024-03-08T00:41:01;28;26;18
55549;PMS7003;41397;49.972;18.944;2024-03-08T00:44:07;27;26;16
55549;PMS7003;41397;49.972;18.944;2024-03-08T00:47:08;35;27;19
55549;PMS7003;41397;49.972;18.944;2024-03-08T00:50:10;38;31;18
55549;PMS7003;41397;49.972;18.944;2024-03-08T00:53:11;31;29;18
55549;PMS7003;41397;49.972;18.944;2024-03-08T00:56:15;34;30;19
55549;PMS7003;41397;49.972;18.944;2024-03-08T00:59:16;30;28;19
55549;PMS7003;41397;49.972;18.944;2024-03-08T01:02:17;30;27;17
55549;PMS7003;41397;49.972;18.944;2024-03-08T01:05:19;31;28;17
55549;PMS7003;41397;49.972;18.944;2024-03-08T01:08:23;21;21;16
55549;PMS7003;41397;49.972;18.944;2024-03-08T01:11:24;29;27;17
55549;PMS7003;41397;49.972;18.944;2024-03-08T01:14:26;35;28;18
55549;PMS7003;41397;49.972;18.944;2024-03-08T01:17:30;19;19;13
55549;PMS7003;41397;49.972;18.944;2024-03-08T01:20:32;33;30;16
55549;PMS7003;41397;49.972;18.944;2024-03-08T01:23:33;29;26;17
55549;PMS7003;41397;49.972;18.944;2024-03-08T01:26:35;33;30;19
55549;PMS7003;41397;49.972;18.944;2024-03-08T01:29:36;37;31;18
55549;PMS7003;41397;49.972;18.944;2024-03-08T01:32:40;28;25;15
55549;PMS7003;41397;49.972;18.944;2024-03-08T01:35:42;12;9;1
55549;PMS7003;41397;49.972;18.944;2024-03-08T01:38:43;35;31;18
55549;PMS7003;41397;49.972;18.944;2024-03-08T01:41:45;23;23;14
55549;PMS7003;41397;49.972;18.944;2024-03-08T01:44:48;27;25;18
55549;PMS7003;41397;49.972;18.944;2024-03-08T01:47:49;30;27;17
55549;PMS7003;41397;49.972;18.944;2024-03-08T01:50:51;29;27;17
55549;PMS7003;41397;49.972;18.944;2024-03-08T01:53:55;29;26;14
55549;PMS7003;41397;49.972;18.944;2024-03-08T01:56:58;30;28;19
55549;PMS7003;41397;49.972;18.944;2024-03-08T01:59:59;24;22;17
55549;PMS7003;41397;49.972;18.944;2024-03-08T02:03:04;36;28;15
55549;PMS7003;41397;49.972;18.944;2024-03-08T02:06:06;35;25;17
55549;PMS7003;41397;49.972;18.944;2024-03-08T02:09:10;27;25;17
55549;PMS7003;41397;49.972;18.944;2024-03-08T02:12:11;29;27;17
55549;PMS7003;41397;49.972;18.944;2024-03-08T02:15:12;43;36;21
55549;PMS7003;41397;49.972;18.944;2024-03-08T02:18:13;30;28;18
55549;PMS7003;41397;49.972;18.944;2024-03-08T02:21:16;27;21;12
55549;PMS7003;41397;49.972;18.944;2024-03-08T02:24:21;30;25;14
55549;PMS7003;41397;49.972;18.944;2024-03-08T02:27:24;15;15;15
55549;PMS7003;41397;49.972;18.944;2024-03-08T02:30:26;35;29;17
55549;PMS7003;41397;49.972;18.944;2024-03-08T02:33:30;30;28;17
55549;PMS7003;41397;49.972;18.944;2024-03-08T02:36:31;23;22;16
55549;PMS7003;41397;49.972;18.944;2024-03-08T02:39:35;32;28;18
55549;PMS7003;41397;49.972;18.944;2024-03-08T02:42:36;34;29;18
55549;PMS7003;41397;49.972;18.944;2024-03-08T02:45:37;28;24;15
55549;PMS7003;41397;49.972;18.944;2024-03-08T02:48:39;31;25;16
55549;PMS7003;41397;49.972;18.944;2024-03-08T02:51:40;30;27;18
55549;PMS7003;41397;49.972;18.944;2024-03-08T02:54:41;25;24;17
55549;PMS7003;41397;49.972;18.944;2024-03-08T02:57:43;28;27;18
55549;PMS7003;41397;49.972;18.944;2024-03-08T03:00:47;35;28;20
55549;PMS7003;41397;49.972;18.944;2024-03-08T03:03:48;33;30;19
55549;PMS7003;41397;49.972;18.944;2024-03-08T03:06:50;34;30;16
55549;PMS7003;41397;49.972;18.944;2024-03-08T03:09:51;38;29;19
55549;PMS7003;41397;49.972;18.944;2024-03-08T03:12:52;26;25;17
55549;PMS7003;41397;49.972;18.944;2024-03-08T03:15:53;38;31;20
55549;PMS7003;41397;49.972;18.944;2024-03-08T03:18:55;33;27;16
55549;PMS7003;41397;49.972;18.944;2024-03-08T03:21:59;33;27;16
55549;PMS7003;41397;49.972;18.944;2024-03-08T03:25:00;33;28;18
55549;PMS7003;41397;49.972;18.944;2024-03-08T03:28:03;36;31;21
55549;PMS7003;41397;49.972;18.944;2024-03-08T03:31:08;35;31;19
55549;PMS7003;41397;49.972;18.944;2024-03-08T03:34:15;33;28;18
55549;PMS7003;41397;49.972;18.944;2024-03-08T03:37:16;34;30;21
55549;PMS7003;41397;49.972;18.944;2024-03-08T03:40:20;27;26;15
55549;PMS7003;41397;49.972;18.944;2024-03-08T03:43:21;25;24;11
55549;PMS7003;41397;49.972;18.944;2024-03-08T03:46:22;28;26;16
55549;PMS7003;41397;49.972;18.944;2024-03-08T03:49:23;24;24;16
55549;PMS7003;41397;49.972;18.944;2024-03-08T03:52:24;27;25;15
55549;PMS7003;41397;49.972;18.944;2024-03-08T03:55:26;29;28;17
55549;PMS7003;41397;49.972;18.944;2024-03-08T03:58:27;31;28;19
55549;PMS7003;41397;49.972;18.944;2024-03-08T04:01:28;24;23;17
55549;PMS7003;41397;49.972;18.944;2024-03-08T04:04:30;26;25;16
55549;PMS7003;41397;49.972;18.944;2024-03-08T04:07:31;26;24;16
55549;PMS7003;41397;49.972;18.944;2024-03-08T04:10:35;23;23;14
55549;PMS7003;41397;49.972;18.944;2024-03-08T04:13:37;29;27;16
55549;PMS7003;41397;49.972;18.944;2024-03-08T04:16:38;23;22;16
55549;PMS7003;41397;49.972;18.944;2024-03-08T04:19:39;12;12;11
55549;PMS7003;41397;49.972;18.944;2024-03-08T04:22:41;30;28;17
55549;PMS7003;41397;49.972;18.944;2024-03-08T04:25:45;26;26;16
55549;PMS7003;41397;49.972;18.944;2024-03-08T04:28:47;27;21;12
55549;PMS7003;41397;49.972;18.944;2024-03-08T04:31:48;31;27;17
55549;PMS7003;41397;49.972;18.944;2024-03-08T04:34:50;28;26;15
55549;PMS7003;41397;49.972;18.944;2024-03-08T04:37:51;25;22;11
55549;PMS7003;41397;49.972;18.944;2024-03-08T04:40:52;36;23;14
55549;PMS7003;41397;49.972;18.944;2024-03-08T04:43:54;25;23;17
55549;PMS7003;41397;49.972;18.944;2024-03-08T04:46:59;28;25;16
55549;PMS7003;41397;49.972;18.944;2024-03-08T04:50:00;33;30;19
55549;PMS7003;41397;49.972;18.944;2024-03-08T04:53:02;22;19;13
55549;PMS7003;41397;49.972;18.944;2024-03-08T04:56:04;23;22;16
55549;PMS7003;41397;49.972;18.944;2024-03-08T04:59:08;33;30;16
55549;PMS7003;41397;49.972;18.944;2024-03-08T05:02:09;23;23;16
55549;PMS7003;41397;49.972;18.944;2024-03-08T05:05:10;28;26;15
55549;PMS7003;41397;49.972;18.944;2024-03-08T05:08:14;28;27;16
55549;PMS7003;41397;49.972;18.944;2024-03-08T05:11:19;20;20;12
55549;PMS7003;41397;49.972;18.944;2024-03-08T05:14:20;34;30;19
55549;PMS7003;41397;49.972;18.944;2024-03-08T05:17:21;28;24;18
55549;PMS7003;41397;49.972;18.944;2024-03-08T05:20:24;27;24;15
55549;PMS7003;41397;49.972;18.944;2024-03-08T05:23:26;24;24;15
55549;PMS7003;41397;49.972;18.944;2024-03-08T05:26:27;23;20;13
55549;PMS7003;41397;49.972;18.944;2024-03-08T05:29:30;26;25;18
55549;PMS7003;41397;49.972;18.944;2024-03-08T05:32:32;35;29;19
55549;PMS7003;41397;49.972;18.944;2024-03-08T05:35:33;29;27;18
55549;PMS7003;41397;49.972;18.944;2024-03-08T05:38:34;27;25;16
55549;PMS7003;41397;49.972;18.944;2024-03-08T05:41:35;27;26;17
55549;PMS7003;41397;49.972;18.944;2024-03-08T05:44:36;34;29;19
55549;PMS7003;41397;49.972;18.944;2024-03-08T05:47:41;26;25;14
55549;PMS7003;41397;49.972;18.944;2024-03-08T05:50:43;25;24;18
55549;PMS7003;41397;49.972;18.944;2024-03-08T05:53:44;27;25;14
55549;PMS7003;41397;49.972;18.944;2024-03-08T05:56:46;28;27;17
55549;PMS7003;41397;49.972;18.944;2024-03-08T05:59:50;23;23;17
55549;PMS7003;41397;49.972;18.944;2024-03-08T06:02:51;28;25;16
55549;PMS7003;41397;49.972;18.944;2024-03-08T06:05:52;22;12;10
55549;PMS7003;41397;49.972;18.944;2024-03-08T06:08:53;30;28;15
55549;PMS7003;41397;49.972;18.944;2024-03-08T06:11:58;28;27;19
55549;PMS7003;41397;49.972;18.944;2024-03-08T06:14:59;24;22;11
55549;PMS7003;41397;49.972;18.944;2024-03-08T06:18:00;40;26;17
55549;PMS7003;41397;49.972;18.944;2024-03-08T06:21:06;25;24;14
55549;PMS7003;41397;49.972;18.944;2024-03-08T06:24:11;38;26;17
55549;PMS7003;41397;49.972;18.944;2024-03-08T06:27:13;32;29;19
55549;PMS7003;41397;49.972;18.944;2024-03-08T06:30:14;26;25;15
55549;PMS7003;41397;49.972;18.944;2024-03-08T06:33:16;29;26;16
55549;PMS7003;41397;49.972;18.944;2024-03-08T06:36:18;21;21;11
55549;PMS7003;41397;49.972;18.944;2024-03-08T06:39:22;26;25;16
55549;PMS7003;41397;49.972;18.944;2024-03-08T06:42:25;21;21;15
55549;PMS7003;41397;49.972;18.944;2024-03-08T06:45:27;19;19;14
55549;PMS7003;41397;49.972;18.944;2024-03-08T06:48:29;28;27;17
55549;PMS7003;41397;49.972;18.944;2024-03-08T06:51:30;36;29;19
55549;PMS7003;41397;49.972;18.944;2024-03-08T06:54:31;29;26;16
55549;PMS7003;41397;49.972;18.944;2024-03-08T06:57:33;24;24;16
55549;PMS7003;41397;49.972;18.944;2024-03-08T07:00:34;27;25;18
55549;PMS7003;41397;49.972;18.944;2024-03-08T07:03:36;20;18;10
55549;PMS7003;41397;49.972;18.944;2024-03-08T07:06:40;23;23;16
55549;PMS7003;41397;49.972;18.944;2024-03-08T07:09:44;28;26;19
55549;PMS7003;41397;49.972;18.944;2024-03-08T07:12:46;24;24;17
55549;PMS7003;41397;49.972;18.944;2024-03-08T07:15:47;38;33;20
55549;PMS7003;41397;49.972;18.944;2024-03-08T07:18:48;34;31;17
55549;PMS7003;41397;49.972;18.944;2024-03-08T07:21:53;25;24;16
55549;PMS7003;41397;49.972;18.944;2024-03-08T07:24:55;28;26;17
55549;PMS7003;41397;49.972;18.944;2024-03-08T07:28:08;38;32;20
55549;PMS7003;41397;49.972;18.944;2024-03-08T07:31:09;35;31;20
55549;PMS7003;41397;49.972;18.944;2024-03-08T07:34:24;35;31;21
55549;PMS7003;41397;49.972;18.944;2024-03-08T07:37:26;27;26;18
55549;PMS7003;41397;49.972;18.944;2024-03-08T07:40:27;24;23;17
55549;PMS7003;41397;49.972;18.944;2024-03-08T07:43:28;28;27;19
55549;PMS7003;41397;49.972;18.944;2024-03-08T07:46:29;27;24;16
55549;PMS7003;41397;49.972;18.944;2024-03-08T07:49:31;25;23;15
55549;PMS7003;41397;49.972;18.944;2024-03-08T07:52:34;19;19;15
55549;PMS7003;41397;49.972;18.944;2024-03-08T07:55:36;28;26;18
55549;PMS7003;41397;49.972;18.944;2024-03-08T07:58:40;23;23;16
55549;PMS7003;41397;49.972;18.944;2024-03-08T08:01:41;24;22;15
55549;PMS7003;41397;49.972;18.944;2024-03-08T08:04:42;25;23;15
55549;PMS7003;41397;49.972;18.944;2024-03-08T08:07:45;29;26;15
55549;PMS7003;41397;49.972;18.944;2024-03-08T08:10:47;34;31;21
55549;PMS7003;41397;49.972;18.944;2024-03-08T08:13:48;30;25;15
55549;PMS7003;41397;49.972;18.944;2024-03-08T08:16:49;30;27;19
55549;PMS7003;41397;49.972;18.944;2024-03-08T08:19:53;26;25;14
55549;PMS7003;41397;49.972;18.944;2024-03-08T08:22:54;21;21;14
55549;PMS7003;41397;49.972;18.944;2024-03-08T08:25:56;17;17;11
55549;PMS7003;41397;49.972;18.944;2024-03-08T08:28:57;23;23;13
55549;PMS7003;41397;49.972;18.944;2024-03-08T08:31:58;21;21;14
55549;PMS7003;41397;49.972;18.944;2024-03-08T08:34:59;19;19;15
55549;PMS7003;41397;49.972;18.944;2024-03-08T08:38:01;30;27;15
55549;PMS7003;41397;49.972;18.944;2024-03-08T08:41:04;34;30;17
55549;PMS7003;41397;49.972;18.944;2024-03-08T08:44:07;29;27;18
55549;PMS7003;41397;49.972;18.944;2024-03-08T08:47:12;28;27;16
55549;PMS7003;41397;49.972;18.944;2024-03-08T08:50:13;21;21;15
55549;PMS7003;41397;49.972;18.944;2024-03-08T08:53:16;26;22;17
55549;PMS7003;41397;49.972;18.944;2024-03-08T08:56:19;30;26;18
55549;PMS7003;41397;49.972;18.944;2024-03-08T08:59:20;28;26;17
55549;PMS7003;41397;49.972;18.944;2024-03-08T09:02:25;27;26;18
55549;PMS7003;41397;49.972;18.944;2024-03-08T09:05:26;22;22;15
55549;PMS7003;41397;49.972;18.944;2024-03-08T09:08:28;32;28;18
55549;PMS7003;41397;49.972;18.944;2024-03-08T09:11:29;31;28;18
55549;PMS7003;41397;49.972;18.944;2024-03-08T09:14:33;34;30;17
55549;PMS7003;41397;49.972;18.944;2024-03-08T09:17:34;32;29;17
55549;PMS7003;41397;49.972;18.944;2024-03-08T09:20:35;30;26;18
55549;PMS7003;41397;49.972;18.944;2024-03-08T09:23:37;30;28;17
55549;PMS7003;41397;49.972;18.944;2024-03-08T09:26:38;21;21;11
55549;PMS7003;41397;49.972;18.944;2024-03-08T09:29:43;37;30;19
55549;PMS7003;41397;49.972;18.944;2024-03-08T09:32:45;25;25;17
55549;PMS7003;41397;49.972;18.944;2024-03-08T09:35:47;26;23;14
55549;PMS7003;41397;49.972;18.944;2024-03-08T09:38:48;17;17;14
55549;PMS7003;41397;49.972;18.944;2024-03-08T09:41:50;21;20;14
55549;PMS7003;41397;49.972;18.944;2024-03-08T09:44:51;27;26;16
55549;PMS7003;41397;49.972;18.944;2024-03-08T09:47:53;28;27;18
55549;PMS7003;41397;49.972;18.944;2024-03-08T09:50:55;32;27;17
55549;PMS7003;41397;49.972;18.944;2024-03-08T09:53:57;35;29;16
55549;PMS7003;41397;49.972;18.944;2024-03-08T09:56:59;25;24;14
55549;PMS7003;41397;49.972;18.944;2024-03-08T10:00:00;30;28;17
55549;PMS7003;41397;49.972;18.944;2024-03-08T10:03:01;29;27;16
55549;PMS7003;41397;49.972;18.944;2024-03-08T10:06:03;26;25;20
55549;PMS7003;41397;49.972;18.944;2024-03-08T10:09:06;32;28;19
55549;PMS7003;41397;49.972;18.944;2024-03-08T10:12:10;38;31;19
55549;PMS7003;41397;49.972;18.944;2024-03-08T10:15:11;26;23;14
55549;PMS7003;41397;49.972;18.944;2024-03-08T10:18:17;33;29;19
55549;PMS7003;41397;49.972;18.944;2024-03-08T10:21:18;36;32;21
55549;PMS7003;41397;49.972;18.944;2024-03-08T10:24:19;32;30;21
55549;PMS7003;41397;49.972;18.944;2024-03-08T10:27:20;24;24;16
55549;PMS7003;41397;49.972;18.944;2024-03-08T10:30:22;35;27;19
55549;PMS7003;41397;49.972;18.944;2024-03-08T10:33:24;33;28;18
55549;PMS7003;41397;49.972;18.944;2024-03-08T10:36:26;31;29;20
55549;PMS7003;41397;49.972;18.944;2024-03-08T10:39:29;33;30;19
55549;PMS7003;41397;49.972;18.944;2024-03-08T10:45:49;31;29;17
55549;PMS7003;41397;49.972;18.944;2024-03-08T10:49:02;27;25;16
55549;PMS7003;41397;49.972;18.944;2024-03-08T10:52:08;23;23;16
55549;PMS7003;41397;49.972;18.944;2024-03-08T10:55:13;38;33;22
55549;PMS7003;41397;49.972;18.944;2024-03-08T10:58:16;24;24;17
55549;PMS7003;41397;49.972;18.944;2024-03-08T11:01:18;27;26;18
55549;PMS7003;41397;49.972;18.944;2024-03-08T11:04:19;32;30;16
55549;PMS7003;41397;49.972;18.944;2024-03-08T11:07:24;37;33;20
55549;PMS7003;41397;49.972;18.944;2024-03-08T11:10:29;27;25;18
55549;PMS7003;41397;49.972;18.944;2024-03-08T11:13:34;29;27;18
55549;PMS7003;41397;49.972;18.944;2024-03-08T11:16:38;28;26;17
55549;PMS7003;41397;49.972;18.944;2024-03-08T11:19:45;34;30;21
55549;PMS7003;41397;49.972;18.944;2024-03-08T11:26:01;34;29;17
55549;PMS7003;41397;49.972;18.944;2024-03-08T11:32:21;31;28;20
55549;PMS7003;41397;49.972;18.944;2024-03-08T11:35:23;24;19;16
55549;PMS7003;41397;49.972;18.944;2024-03-08T11:38:24;35;31;22
55549;PMS7003;41397;49.972;18.944;2024-03-08T11:41:26;34;31;19
55549;PMS7003;41397;49.972;18.944;2024-03-08T11:44:27;34;29;18
55549;PMS7003;41397;49.972;18.944;2024-03-08T11:47:31;40;33;18
55549;PMS7003;41397;49.972;18.944;2024-03-08T11:50:32;29;25;17
55549;PMS7003;41397;49.972;18.944;2024-03-08T11:53:34;30;28;17
55549;PMS7003;41397;49.972;18.944;2024-03-08T11:56:37;35;30;19
55549;PMS7003;41397;49.972;18.944;2024-03-08T11:59:39;36;32;20
55549;PMS7003;41397;49.972;18.944;2024-03-08T12:02:40;26;25;18
55549;PMS7003;41397;49.972;18.944;2024-03-08T12:05:52;37;30;18
55549;PMS7003;41397;49.972;18.944;2024-03-08T12:09:00;35;31;19
55549;PMS7003;41397;49.972;18.944;2024-03-08T12:12:02;33;30;19
55549;PMS7003;41397;49.972;18.944;2024-03-08T12:15:08;36;30;20
55549;PMS7003;41397;49.972;18.944;2024-03-08T12:18:09;25;22;18
55549;PMS7003;41397;49.972;18.944;2024-03-08T12:21:13;20;19;14
55549;PMS7003;41397;49.972;18.944;2024-03-08T12:24:21;32;29;17
55549;PMS7003;41397;49.972;18.944;2024-03-08T12:27:22;36;32;18
55549;PMS7003;41397;49.972;18.944;2024-03-08T12:30:24;42;29;18
55549;PMS7003;41397;49.972;18.944;2024-03-08T12:33:30;34;30;19
55549;PMS7003;41397;49.972;18.944;2024-03-08T12:36:31;33;30;18
55549;PMS7003;41397;49.972;18.944;2024-03-08T12:39:33;39;29;17
55549;PMS7003;41397;49.972;18.944;2024-03-08T12:45:15;35;30;17
55549;PMS7003;41397;49.972;18.944;2024-03-08T12:48:16;32;29;20
55549;PMS7003;41397;49.972;18.944;2024-03-08T12:51:18;36;30;19
55549;PMS7003;41397;49.972;18.944;2024-03-08T12:54:23;36;30;20
55549;PMS7003;41397;49.972;18.944;2024-03-08T12:57:24;29;27;20
55549;PMS7003;41397;49.972;18.944;2024-03-08T13:00:29;31;27;16
55549;PMS7003;41397;49.972;18.944;2024-03-08T13:03:30;30;27;19
55549;PMS7003;41397;49.972;18.944;2024-03-08T13:06:32;32;29;19
55549;PMS7003;41397;49.972;18.944;2024-03-08T13:09:33;30;28;19
55549;PMS7003;41397;49.972;18.944;2024-03-08T13:12:38;35;29;19
55549;PMS7003;41397;49.972;18.944;2024-03-08T13:15:42;33;29;18
55549;PMS7003;41397;49.972;18.944;2024-03-08T13:18:44;30;28;18
55549;PMS7003;41397;49.972;18.944;2024-03-08T13:21:45;28;26;17
55549;PMS7003;41397;49.972;18.944;2024-03-08T13:24:49;35;27;17
55549;PMS7003;41397;49.972;18.944;2024-03-08T13:27:52;24;24;18
55549;PMS7003;41397;49.972;18.944;2024-03-08T13:30:59;43;36;20
55549;PMS7003;41397;49.972;18.944;2024-03-08T13:34:06;30;28;20
55549;PMS7003;41397;49.972;18.944;2024-03-08T13:37:11;42;36;22
55549;PMS7003;41397;49.972;18.944;2024-03-08T13:40:12;38;33;22
55549;PMS7003;41397;49.972;18.944;2024-03-08T13:43:14;28;27;17
55549;PMS7003;41397;49.972;18.944;2024-03-08T13:46:15;35;30;19
55549;PMS7003;41397;49.972;18.944;2024-03-08T13:49:17;38;33;22
55549;PMS7003;41397;49.972;18.944;2024-03-08T13:52:18;41;36;21
55549;PMS7003;41397;49.972;18.944;2024-03-08T13:55:20;24;24;18
55549;PMS7003;41397;49.972;18.944;2024-03-08T13:58:27;34;31;19
55549;PMS7003;41397;49.972;18.944;2024-03-08T14:01:28;34;31;16
55549;PMS7003;41397;49.972;18.944;2024-03-08T14:04:32;44;31;19
55549;PMS7003;41397;49.972;18.944;2024-03-08T14:07:35;32;29;18
55549;PMS7003;41397;49.972;18.944;2024-03-08T14:10:36;25;25;17
55549;PMS7003;41397;49.972;18.944;2024-03-08T14:13:44;31;28;19
55549;PMS7003;41397;49.972;18.944;2024-03-08T14:16:46;38;34;22
55549;PMS7003;41397;49.972;18.944;2024-03-08T14:19:48;28;26;18
55549;PMS7003;41397;49.972;18.944;2024-03-08T14:22:51;30;29;18
55549;PMS7003;41397;49.972;18.944;2024-03-08T14:26:00;36;29;17
55549;PMS7003;41397;49.972;18.944;2024-03-08T14:29:01;20;20;13
55549;PMS7003;41397;49.972;18.944;2024-03-08T14:32:03;23;22;15
55549;PMS7003;41397;49.972;18.944;2024-03-08T14:35:06;29;27;18
55549;PMS7003;41397;49.972;18.944;2024-03-08T14:38:11;25;25;16
55549;PMS7003;41397;49.972;18.944;2024-03-08T14:41:13;27;26;18
55549;PMS7003;41397;49.972;18.944;2024-03-08T14:44:17;35;31;19
55549;PMS7003;41397;49.972;18.944;2024-03-08T14:47:19;22;21;14
55549;PMS7003;41397;49.972;18.944;2024-03-08T14:50:23;26;25;17
55549;PMS7003;41397;49.972;18.944;2024-03-08T14:53:25;36;30;18
55549;PMS7003;41397;49.972;18.944;2024-03-08T14:56:28;28;26;17
55549;PMS7003;41397;49.972;18.944;2024-03-08T14:59:29;29;25;12
55549;PMS7003;41397;49.972;18.944;2024-03-08T15:02:31;30;28;18
55549;PMS7003;41397;49.972;18.944;2024-03-08T15:05:43;30;27;18
55549;PMS7003;41397;49.972;18.944;2024-03-08T15:08:49;30;28;20
55549;PMS7003;41397;49.972;18.944;2024-03-08T15:11:52;36;32;21
55549;PMS7003;41397;49.972;18.944;2024-03-08T15:14:57;32;29;16
55549;PMS7003;41397;49.972;18.944;2024-03-08T15:17:58;35;26;16
55549;PMS7003;41397;49.972;18.944;2024-03-08T15:21:00;34;29;18
55549;PMS7003;41397;49.972;18.944;2024-03-08T15:24:01;33;29;20
55549;PMS7003;41397;49.972;18.944;2024-03-08T15:27:15;26;25;18
55549;PMS7003;41397;49.972;18.944;2024-03-08T15:30:17;37;31;19
55549;PMS7003;41397;49.972;18.944;2024-03-08T15:33:22;22;21;15
55549;PMS7003;41397;49.972;18.944;2024-03-08T15:36:29;32;30;19
55549;PMS7003;41397;49.972;18.944;2024-03-08T15:39:33;37;32;19
55549;PMS7003;41397;49.972;18.944;2024-03-08T15:42:38;31;29;19
55549;PMS7003;41397;49.972;18.944;2024-03-08T15:45:40;29;25;17
55549;PMS7003;41397;49.972;18.944;2024-03-08T15:48:42;38;31;20
55549;PMS7003;41397;49.972;18.944;2024-03-08T15:51:45;32;29;20
55549;PMS7003;41397;49.972;18.944;2024-03-08T15:54:47;29;24;15
55549;PMS7003;41397;49.972;18.944;2024-03-08T15:57:49;31;29;19
55549;PMS7003;41397;49.972;18.944;2024-03-08T16:00:59;29;27;17
55549;PMS7003;41397;49.972;18.944;2024-03-08T16:04:00;37;29;20
55549;PMS7003;41397;49.972;18.944;2024-03-08T16:07:01;31;28;18
55549;PMS7003;41397;49.972;18.944;2024-03-08T16:10:03;42;33;19
55549;PMS7003;41397;49.972;18.944;2024-03-08T16:13:08;30;28;18
55549;PMS7003;41397;49.972;18.944;2024-03-08T16:16:10;32;29;17
55549;PMS7003;41397;49.972;18.944;2024-03-08T16:19:12;39;33;17
55549;PMS7003;41397;49.972;18.944;2024-03-08T16:22:14;27;24;13
55549;PMS7003;41397;49.972;18.944;2024-03-08T16:25:15;29;26;17
55549;PMS7003;41397;49.972;18.944;2024-03-08T16:28:20;36;32;21
55549;PMS7003;41397;49.972;18.944;2024-03-08T16:31:28;36;32;21
55549;PMS7003;41397;49.972;18.944;2024-03-08T16:34:30;47;37;23
55549;PMS7003;41397;49.972;18.944;2024-03-08T16:37:35;32;28;21
55549;PMS7003;41397;49.972;18.944;2024-03-08T16:40:36;40;34;19
55549;PMS7003;41397;49.972;18.944;2024-03-08T16:43:38;38;32;20
55549;PMS7003;41397;49.972;18.944;2024-03-08T16:46:40;50;39;23
55549;PMS7003;41397;49.972;18.944;2024-03-08T16:49:41;41;36;21
55549;PMS7003;41397;49.972;18.944;2024-03-08T16:52:43;42;36;19
55549;PMS7003;41397;49.972;18.944;2024-03-08T16:55:45;39;33;23
55549;PMS7003;41397;49.972;18.944;2024-03-08T16:58:48;41;33;19
55549;PMS7003;41397;49.972;18.944;2024-03-08T17:01:49;52;40;26
55549;PMS7003;41397;49.972;18.944;2024-03-08T17:04:50;49;41;23
55549;PMS7003;41397;49.972;18.944;2024-03-08T17:07:53;40;35;22
55549;PMS7003;41397;49.972;18.944;2024-03-08T17:11:01;48;39;23
55549;PMS7003;41397;49.972;18.944;2024-03-08T17:14:03;49;40;25
55549;PMS7003;41397;49.972;18.944;2024-03-08T17:17:08;41;35;24
55549;PMS7003;41397;49.972;18.944;2024-03-08T17:20:10;51;41;26
55549;PMS7003;41397;49.972;18.944;2024-03-08T17:23:20;45;36;24
55549;PMS7003;41397;49.972;18.944;2024-03-08T17:26:23;62;45;28
55549;PMS7003;41397;49.972;18.944;2024-03-08T17:29:25;52;42;28
55549;PMS7003;41397;49.972;18.944;2024-03-08T17:32:28;56;43;26
55549;PMS7003;41397;49.972;18.944;2024-03-08T17:35:34;50;40;25
55549;PMS7003;41397;49.972;18.944;2024-03-08T17:38:35;43;37;23
55549;PMS7003;41397;49.972;18.944;2024-03-08T17:41:41;51;42;25
55549;PMS7003;41397;49.972;18.944;2024-03-08T17:44:48;48;34;22
55549;PMS7003;41397;49.972;18.944;2024-03-08T17:47:50;47;39;22
55549;PMS7003;41397;49.972;18.944;2024-03-08T17:50:52;54;39;24
55549;PMS7003;41397;49.972;18.944;2024-03-08T17:53:54;44;36;24
55549;PMS7003;41397;49.972;18.944;2024-03-08T17:56:56;52;40;25
55549;PMS7003;41397;49.972;18.944;2024-03-08T18:00:02;49;40;26
55549;PMS7003;41397;49.972;18.944;2024-03-08T18:03:04;47;38;24
55549;PMS7003;41397;49.972;18.944;2024-03-08T18:06:09;45;38;22
55549;PMS7003;41397;49.972;18.944;2024-03-08T18:09:10;51;42;26
55549;PMS7003;41397;49.972;18.944;2024-03-08T18:12:13;52;42;25
55549;PMS7003;41397;49.972;18.944;2024-03-08T18:15:15;52;43;27
55549;PMS7003;41397;49.972;18.944;2024-03-08T18:18:25;56;41;25
55549;PMS7003;41397;49.972;18.944;2024-03-08T18:21:29;55;43;24
55549;PMS7003;41397;49.972;18.944;2024-03-08T18:24:31;40;35;23
55549;PMS7003;41397;49.972;18.944;2024-03-08T18:27:33;51;43;25
55549;PMS7003;41397;49.972;18.944;2024-03-08T18:30:35;44;37;25
55549;PMS7003;41397;49.972;18.944;2024-03-08T18:33:38;42;36;23
55549;PMS7003;41397;49.972;18.944;2024-03-08T18:36:44;47;39;24
55549;PMS7003;41397;49.972;18.944;2024-03-08T18:39:46;47;38;25
55549;PMS7003;41397;49.972;18.944;2024-03-08T18:42:47;46;38;23
55549;PMS7003;41397;49.972;18.944;2024-03-08T18:45:53;51;39;22
55549;PMS7003;41397;49.972;18.944;2024-03-08T18:48:54;50;38;24
55549;PMS7003;41397;49.972;18.944;2024-03-08T18:51:55;46;38;25
55549;PMS7003;41397;49.972;18.944;2024-03-08T18:54:57;50;42;26
55549;PMS7003;41397;49.972;18.944;2024-03-08T18:57:59;50;42;27
55549;PMS7003;41397;49.972;18.944;2024-03-08T19:01:06;47;40;25
55549;PMS7003;41397;49.972;18.944;2024-03-08T19:04:14;51;41;27
55549;PMS7003;41397;49.972;18.944;2024-03-08T19:07:17;43;36;23
55549;PMS7003;41397;49.972;18.944;2024-03-08T19:10:23;39;34;23
55549;PMS7003;41397;49.972;18.944;2024-03-08T19:13:25;50;41;25
55549;PMS7003;41397;49.972;18.944;2024-03-08T19:16:27;51;41;26
55549;PMS7003;41397;49.972;18.944;2024-03-08T19:19:29;48;40;24
55549;PMS7003;41397;49.972;18.944;2024-03-08T19:22:30;44;37;21
55549;PMS7003;41397;49.972;18.944;2024-03-08T19:25:33;46;38;25
55549;PMS7003;41397;49.972;18.944;2024-03-08T19:28:35;58;47;27